Time;durP1;ratioP1;P1;durP2;ratioP2;P2;SDS_P1;SDS_P2;PMS_P1;PMS_P2;Temp;Humidity;BMP_temperature;BMP_pressure;BME280_temperature;BME280_humidity;BME280_pressure;Samples;Min_cycle;Max_cycle;Signal;HPM_P1;HPM_P2
2021/03/05 00:00:11;;;;;;;20.98;16.73;;;7.40;67.10;;;;;;5004901;28;20081;-79
2021/03/05 00:02:40;;;;;;;18.70;16.45;;;7.30;67.00;;;;;;5006474;28;20109;-79
2021/03/05 00:05:08;;;;;;;18.15;15.80;;;7.40;67.20;;;;;;5005329;28;20088;-76
2021/03/05 00:07:34;;;;;;;21.25;15.93;;;7.40;67.20;;;;;;5004693;28;20065;-77
2021/03/05 00:10:00;;;;;;;15.65;14.13;;;7.30;67.00;;;;;;5004864;28;20026;-76
2021/03/05 00:12:26;;;;;;;15.55;13.70;;;7.30;67.00;;;;;;4988079;28;20133;-80
2021/03/05 00:14:52;;;;;;;17.15;13.63;;;7.30;67.10;;;;;;4990221;28;20492;-79
2021/03/05 00:17:18;;;;;;;17.08;13.18;;;7.30;67.10;;;;;;5006477;28;20103;-75
2021/03/05 00:19:44;;;;;;;17.67;13.52;;;7.30;67.10;;;;;;5006189;28;20474;-81
2021/03/05 00:22:11;;;;;;;16.65;12.75;;;7.30;67.10;;;;;;4990101;28;20026;-78
2021/03/05 00:24:37;;;;;;;16.30;12.23;;;7.30;67.10;;;;;;5008274;28;20128;-78
2021/03/05 00:27:03;;;;;;;16.20;12.00;;;7.30;67.20;;;;;;5006721;28;20493;-80
2021/03/05 00:29:30;;;;;;;17.45;12.25;;;7.30;67.20;;;;;;4993961;28;20033;-78
2021/03/05 00:31:56;;;;;;;16.58;10.63;;;7.30;67.20;;;;;;4992257;28;20378;-81
2021/03/05 00:34:22;;;;;;;15.60;10.07;;;7.30;67.20;;;;;;5000891;28;20042;-78
2021/03/05 00:36:49;;;;;;;13.50;10.60;;;7.30;67.20;;;;;;5024120;28;20399;-77
2021/03/05 00:39:14;;;;;;;11.32;9.93;;;7.30;67.30;;;;;;5009180;28;20038;-79
2021/03/05 00:41:41;;;;;;;14.95;9.93;;;7.30;67.20;;;;;;5007047;28;20060;-79
2021/03/05 00:44:07;;;;;;;13.75;10.02;;;7.20;67.10;;;;;;5006966;28;20026;-79
2021/03/05 00:46:34;;;;;;;14.15;9.07;;;7.20;67.10;;;;;;5008066;28;20152;-77
2021/03/05 00:48:59;;;;;;;12.43;8.90;;;7.20;67.10;;;;;;5006971;28;20038;-76
2021/03/05 00:51:28;;;;;;;14.25;9.50;;;7.20;67.10;;;;;;5006175;28;20034;-77
2021/03/05 00:53:54;;;;;;;11.48;9.02;;;7.20;67.10;;;;;;5008201;28;20048;-79
2021/03/05 00:56:21;;;;;;;12.75;8.73;;;7.20;67.20;;;;;;5007071;28;20030;-80
2021/03/05 00:58:47;;;;;;;12.70;8.10;;;7.10;67.00;;;;;;4991228;28;20077;-80
2021/03/05 01:01:19;;;;;;;14.00;7.68;;;7.20;67.20;;;;;;5000810;28;20440;-81
2021/03/05 01:03:45;;;;;;;9.75;7.40;;;7.10;67.00;;;;;;5012358;28;20084;-82
2021/03/05 01:06:12;;;;;;;11.57;7.35;;;7.10;67.00;;;;;;5011781;28;20055;-81
2021/03/05 01:08:42;;;;;;;11.23;6.72;;;7.10;67.10;;;;;;4997535;28;20434;-80
2021/03/05 01:11:08;;;;;;;14.48;7.60;;;7.10;67.10;;;;;;4995624;28;20385;-77
2021/03/05 01:13:34;;;;;;;8.70;6.65;;;7.10;67.10;;;;;;4999978;28;20084;-78
2021/03/05 01:16:00;;;;;;;11.93;7.15;;;7.10;67.10;;;;;;5011962;28;20057;-78
2021/03/05 01:18:26;;;;;;;8.40;6.75;;;7.00;66.90;;;;;;5011460;28;20095;-77
2021/03/05 01:20:52;;;;;;;9.40;6.13;;;7.10;67.10;;;;;;5010012;28;20466;-76
2021/03/05 01:23:20;;;;;;;10.32;5.55;;;7.10;67.10;;;;;;5009286;28;20080;-78
2021/03/05 01:25:46;;;;;;;10.48;6.00;;;7.10;67.10;;;;;;5010603;28;20400;-76
2021/03/05 01:28:12;;;;;;;8.85;5.70;;;7.00;66.90;;;;;;5011444;28;20521;-78
2021/03/05 01:30:39;;;;;;;8.70;5.85;;;7.00;66.90;;;;;;5011058;28;20049;-75
2021/03/05 01:33:05;;;;;;;11.60;6.22;;;7.00;66.90;;;;;;5010096;28;20176;-79
2021/03/05 01:35:32;;;;;;;9.55;5.13;;;7.00;66.90;;;;;;5009770;28;20030;-76
2021/03/05 01:37:58;;;;;;;10.85;4.95;;;7.00;66.90;;;;;;4992544;28;20403;-76
2021/03/05 01:40:29;;;;;;;10.48;4.95;;;7.00;66.90;;;;;;5010190;28;20033;-77
2021/03/05 01:42:55;;;;;;;7.22;5.35;;;7.00;66.90;;;;;;5008276;28;20100;-77
2021/03/05 01:45:25;;;;;;;8.57;5.38;;;7.00;66.90;;;;;;5009148;28;20065;-77
2021/03/05 01:47:56;;;;;;;9.43;5.70;;;6.90;66.80;;;;;;5010720;28;20033;-76
2021/03/05 01:50:30;;;;;;;7.65;4.75;;;6.90;66.80;;;;;;5009632;28;20444;-79
2021/03/05 01:53:02;;;;;;;10.77;4.75;;;7.00;67.00;;;;;;5010528;28;20062;-77
2021/03/05 01:55:29;;;;;;;7.13;4.63;;;6.90;66.70;;;;;;4992106;28;20386;-78
2021/03/05 01:57:56;;;;;;;6.93;4.28;;;6.90;66.80;;;;;;4992870;28;20236;-80
2021/03/05 02:00:47;;;;;;;7.97;4.90;;;6.90;66.80;;;;;;4994080;28;20117;-80
2021/03/05 02:03:13;;;;;;;9.20;5.13;;;6.80;66.60;;;;;;5008154;28;20038;-80
2021/03/05 02:05:40;;;;;;;9.13;4.38;;;6.80;66.60;;;;;;5023929;28;20038;-76
2021/03/05 02:08:10;;;;;;;8.50;4.05;;;6.80;66.70;;;;;;5007357;28;20812;-75
2021/03/05 02:10:37;;;;;;;8.60;4.15;;;6.80;66.60;;;;;;5024532;28;20038;-77
2021/03/05 02:13:03;;;;;;;12.70;4.93;;;6.80;66.70;;;;;;5008190;28;20034;-80
2021/03/05 02:15:32;;;;;;;8.10;3.70;;;6.80;66.70;;;;;;5008440;28;20053;-76
2021/03/05 02:18:33;;;;;;;7.53;4.05;;;6.80;66.70;;;;;;5008721;28;20394;-78
2021/03/05 02:21:21;;;;;;;9.15;3.90;;;6.80;66.70;;;;;;4988974;28;20246;-74
2021/03/05 02:23:53;;;;;;;7.13;4.03;;;6.70;66.50;;;;;;5021787;28;20034;-77
2021/03/05 02:26:55;;;;;;;6.40;3.72;;;6.70;66.40;;;;;;4990603;28;20064;-77
2021/03/05 02:29:58;;;;;;;7.53;3.88;;;6.70;66.50;;;;;;4997136;28;20045;-76
2021/03/05 02:32:34;;;;;;;6.30;3.60;;;6.70;66.50;;;;;;5007858;28;20714;-76
2021/03/05 02:35:02;;;;;;;7.65;3.13;;;6.70;66.40;;;;;;5008518;28;20156;-75
2021/03/05 02:37:31;;;;;;;7.97;3.88;;;6.70;66.60;;;;;;5008997;28;20465;-75
2021/03/05 02:40:06;;;;;;;9.57;4.15;;;6.70;66.50;;;;;;5016053;28;20033;-76
2021/03/05 02:43:01;;;;;;;7.07;3.83;;;6.60;66.40;;;;;;5010020;28;20037;-77
2021/03/05 02:45:30;;;;;;;4.68;2.80;;;6.60;66.40;;;;;;4991377;28;20038;-78
2021/03/05 02:48:01;;;;;;;8.30;3.63;;;6.60;66.40;;;;;;4994893;28;20050;-76
2021/03/05 02:50:29;;;;;;;5.15;3.47;;;6.60;66.40;;;;;;4994887;28;20034;-79
2021/03/05 02:52:59;;;;;;;6.60;3.20;;;6.60;66.40;;;;;;4995992;28;20026;-79
2021/03/05 02:55:27;;;;;;;8.68;2.88;;;6.50;66.20;;;;;;4994995;28;20048;-78
2021/03/05 02:57:56;;;;;;;8.70;3.38;;;6.50;66.20;;;;;;5012973;28;20034;-79
2021/03/05 03:00:25;;;;;;;3.80;2.78;;;6.50;66.20;;;;;;5027375;28;20056;-79
2021/03/05 03:02:55;;;;;;;5.88;3.22;;;6.50;66.20;;;;;;5012692;28;20041;-79
2021/03/05 03:05:22;;;;;;;5.18;2.80;;;6.50;66.20;;;;;;5011274;28;20091;-79
2021/03/05 03:07:49;;;;;;;5.95;3.17;;;6.40;66.00;;;;;;4996616;28;20069;-79
2021/03/05 03:10:18;;;;;;;12.68;3.22;;;6.40;66.10;;;;;;5011561;28;20042;-78
2021/03/05 03:12:46;;;;;;;8.90;3.15;;;6.30;65.90;;;;;;4994446;28;20125;-76
2021/03/05 03:15:15;;;;;;;4.97;2.90;;;6.30;65.90;;;;;;5010506;28;20385;-79
2021/03/05 03:17:46;;;;;;;12.43;3.58;;;6.30;65.90;;;;;;5012573;28;20511;-79
2021/03/05 03:20:16;;;;;;;6.75;2.97;;;6.30;66.00;;;;;;5010789;28;20585;-78
2021/03/05 03:22:42;;;;;;;7.85;3.20;;;6.30;66.00;;;;;;5011011;28;20060;-78
2021/03/05 03:25:09;;;;;;;5.45;3.03;;;6.30;66.00;;;;;;5011349;28;20118;-78
2021/03/05 03:27:35;;;;;;;8.07;3.47;;;6.20;65.80;;;;;;5010187;28;20378;-79
2021/03/05 03:30:03;;;;;;;4.18;2.75;;;6.20;65.80;;;;;;5012016;28;20041;-76
2021/03/05 03:32:30;;;;;;;7.13;3.47;;;6.20;65.80;;;;;;4993922;28;20029;-74
2021/03/05 03:34:56;;;;;;;7.38;3.72;;;6.10;65.70;;;;;;5010545;28;20508;-76
2021/03/05 03:37:23;;;;;;;9.20;3.28;;;6.10;65.70;;;;;;5009895;28;20384;-79
2021/03/05 03:39:49;;;;;;;6.55;2.63;;;6.00;65.50;;;;;;5010173;28;20522;-78
2021/03/05 03:42:15;;;;;;;9.20;3.92;;;6.00;65.50;;;;;;5009879;28;20034;-76
2021/03/05 03:44:41;;;;;;;5.68;2.63;;;6.00;65.50;;;;;;5011177;28;20412;-79
2021/03/05 03:47:07;;;;;;;5.35;2.90;;;6.00;65.50;;;;;;5011276;28;20045;-79
2021/03/05 03:49:42;;;;;;;6.68;3.40;;;5.90;65.40;;;;;;5012905;28;20033;-78
2021/03/05 03:52:26;;;;;;;9.65;3.05;;;5.90;65.40;;;;;;5012126;28;20036;-78
2021/03/05 03:54:55;;;;;;;5.63;2.60;;;5.80;65.30;;;;;;5012667;28;20516;-80
2021/03/05 03:57:23;;;;;;;5.30;2.65;;;5.80;65.30;;;;;;5011671;28;20103;-78
2021/03/05 03:59:51;;;;;;;4.80;3.40;;;5.70;65.20;;;;;;5011737;28;20100;-76
2021/03/05 04:02:20;;;;;;;6.20;2.72;;;5.70;65.30;;;;;;5009778;28;20030;-78
2021/03/05 04:04:47;;;;;;;8.68;2.95;;;5.70;65.40;;;;;;5011098;28;20574;-77
2021/03/05 04:07:13;;;;;;;7.35;3.45;;;5.70;65.40;;;;;;5010658;28;20030;-80
2021/03/05 04:09:40;;;;;;;4.30;2.63;;;5.60;65.30;;;;;;5010454;28;20486;-78
2021/03/05 04:12:07;;;;;;;9.88;3.20;;;5.60;65.30;;;;;;5012421;28;20026;-77
2021/03/05 04:14:34;;;;;;;3.65;3.03;;;5.60;65.30;;;;;;5010971;28;20435;-80
2021/03/05 04:17:00;;;;;;;7.60;3.55;;;5.60;65.30;;;;;;5011914;28;20033;-79
2021/03/05 04:19:26;;;;;;;4.80;3.17;;;5.60;65.30;;;;;;5010502;28;20034;-79
2021/03/05 04:21:53;;;;;;;4.25;3.05;;;5.60;65.30;;;;;;4994605;28;20033;-80
2021/03/05 04:24:20;;;;;;;5.78;2.53;;;5.60;65.30;;;;;;5011873;28;20036;-78
2021/03/05 04:26:46;;;;;;;7.43;3.67;;;5.60;65.30;;;;;;5011520;28;20037;-78
2021/03/05 04:29:12;;;;;;;5.95;3.15;;;5.60;65.30;;;;;;5012222;28;20103;-79
2021/03/05 04:31:38;;;;;;;8.10;3.05;;;5.60;65.30;;;;;;5009431;28;20392;-78
2021/03/05 04:34:04;;;;;;;7.47;2.97;;;5.60;65.30;;;;;;5011291;28;20087;-77
2021/03/05 04:36:30;;;;;;;7.32;3.50;;;5.60;65.30;;;;;;5010891;28;20033;-79
2021/03/05 04:38:56;;;;;;;5.30;3.13;;;5.60;65.30;;;;;;4992305;28;20030;-80
2021/03/05 04:41:22;;;;;;;4.53;2.97;;;5.60;65.30;;;;;;5009338;28;20022;-79
2021/03/05 04:43:48;;;;;;;6.90;3.17;;;5.60;65.30;;;;;;5008154;28;20037;-78
2021/03/05 04:46:14;;;;;;;5.50;3.30;;;5.60;65.30;;;;;;5009387;28;20480;-79
2021/03/05 04:48:40;;;;;;;7.57;3.28;;;5.60;65.30;;;;;;5008174;28;20034;-79
2021/03/05 04:51:06;;;;;;;5.38;3.10;;;5.60;65.30;;;;;;5008345;28;20505;-77
2021/03/05 04:53:32;;;;;;;6.53;2.65;;;5.60;65.20;;;;;;5008638;28;20450;-79
2021/03/05 04:55:58;;;;;;;11.23;3.33;;;5.60;65.20;;;;;;5007740;28;20028;-79
2021/03/05 04:58:24;;;;;;;7.25;3.10;;;5.60;65.20;;;;;;5008145;28;20030;-79
2021/03/05 05:00:50;;;;;;;4.00;2.80;;;5.60;65.20;;;;;;5007365;28;20422;-79
2021/03/05 05:03:16;;;;;;;6.22;2.80;;;5.60;65.20;;;;;;5007929;28;20034;-78
2021/03/05 05:05:42;;;;;;;10.93;3.70;;;5.60;65.20;;;;;;5008130;28;20121;-79
2021/03/05 05:08:08;;;;;;;4.15;2.63;;;5.60;65.20;;;;;;5009156;28;20506;-77
2021/03/05 05:10:34;;;;;;;4.30;2.95;;;5.60;65.20;;;;;;5008060;28;20033;-77
2021/03/05 05:13:01;;;;;;;7.80;3.15;;;5.60;65.10;;;;;;5007698;28;20120;-81
2021/03/05 05:15:27;;;;;;;5.07;3.08;;;5.60;65.10;;;;;;5008307;28;20469;-79
2021/03/05 05:17:53;;;;;;;10.55;3.35;;;5.70;65.30;;;;;;4991532;28;20038;-79
2021/03/05 05:20:18;;;;;;;6.65;2.53;;;5.60;65.10;;;;;;5007924;28;20034;-78
2021/03/05 05:22:44;;;;;;;5.20;2.92;;;5.60;65.10;;;;;;4991811;28;20422;-80
2021/03/05 05:25:11;;;;;;;6.45;3.15;;;5.60;65.10;;;;;;5007712;28;20096;-77
2021/03/05 05:27:37;;;;;;;5.18;2.60;;;5.70;65.40;;;;;;5009625;28;20488;-78
2021/03/05 05:30:04;;;;;;;7.32;3.10;;;5.70;65.20;;;;;;5007482;28;20068;-78
2021/03/05 05:32:30;;;;;;;4.07;2.88;;;5.60;65.00;;;;;;5007585;28;20028;-79
2021/03/05 05:34:56;;;;;;;4.70;2.88;;;5.70;65.20;;;;;;5007808;28;20034;-77
2021/03/05 05:37:22;;;;;;;8.18;3.15;;;5.60;65.00;;;;;;5009286;28;20030;-78
2021/03/05 05:39:48;;;;;;;5.68;2.72;;;5.60;65.00;;;;;;5007757;28;20438;-80
2021/03/05 05:42:16;;;;;;;5.28;3.15;;;5.70;65.20;;;;;;5009415;28;20053;-78
2021/03/05 05:44:42;;;;;;;7.72;2.70;;;5.70;65.10;;;;;;5010869;28;20045;-76
2021/03/05 05:47:14;;;;;;;9.68;2.58;;;5.60;65.00;;;;;;5011400;28;20055;-77
2021/03/05 05:49:45;;;;;;;4.78;3.33;;;5.60;64.90;;;;;;4992383;28;20030;-80
2021/03/05 05:52:14;;;;;;;4.07;3.15;;;5.70;65.10;;;;;;4988711;28;20113;-82
2021/03/05 05:54:41;;;;;;;7.38;2.95;;;5.70;65.10;;;;;;5004912;28;20510;-81
2021/03/05 05:57:10;;;;;;;8.25;3.35;;;5.70;65.10;;;;;;4988638;28;20426;-77
2021/03/05 05:59:36;;;;;;;7.90;3.28;;;5.70;65.10;;;;;;5001235;28;20136;-77
2021/03/05 06:02:06;;;;;;;7.00;3.00;;;5.70;65.10;;;;;;5010094;28;20088;-78
2021/03/05 06:04:32;;;;;;;7.10;3.22;;;5.70;65.10;;;;;;4986403;28;20061;-77
2021/03/05 06:07:01;;;;;;;4.68;3.17;;;5.70;65.00;;;;;;4987848;28;20365;-76
2021/03/05 06:09:27;;;;;;;5.70;2.88;;;5.70;65.00;;;;;;4980640;28;20069;-78
2021/03/05 06:11:53;;;;;;;8.65;3.03;;;5.70;65.50;;;;;;5005793;28;20426;-79
2021/03/05 06:14:20;;;;;;;5.43;3.20;;;5.70;65.00;;;;;;5006976;28;20109;-78
2021/03/05 06:16:53;;;;;;;3.72;2.50;;;5.70;65.00;;;;;;5002466;28;20033;-77
2021/03/05 06:19:21;;;;;;;4.82;2.72;;;5.70;64.90;;;;;;4989457;28;20026;-79
2021/03/05 06:21:47;;;;;;;6.63;2.60;;;5.70;64.90;;;;;;5004110;28;20129;-80
2021/03/05 06:24:13;;;;;;;5.07;2.75;;;5.70;65.00;;;;;;5006924;28;20037;-77
2021/03/05 06:26:59;;;;;;;3.67;2.90;;;5.80;65.60;;;;;;5006806;28;20038;-80
2021/03/05 06:29:46;;;;;;;9.27;3.05;;;5.90;66.00;;;;;;5006472;28;20038;-81
2021/03/05 06:32:14;;;;;;;8.55;3.22;;;6.00;66.10;;;;;;4989965;28;20032;-81
2021/03/05 06:34:45;;;;;;;8.38;3.38;;;6.10;66.20;;;;;;5007230;28;20462;-80
2021/03/05 06:37:12;;;;;;;4.70;2.90;;;6.20;66.40;;;;;;5006439;28;20477;-79
2021/03/05 06:39:39;;;;;;;10.30;3.20;;;6.20;66.40;;;;;;5006756;28;20149;-77
2021/03/05 06:42:07;;;;;;;11.25;3.60;;;6.30;66.60;;;;;;5021436;28;20654;-81
2021/03/05 06:44:39;;;;;;;4.47;3.13;;;6.40;66.90;;;;;;5006288;28;20041;-81
2021/03/05 06:47:10;;;;;;;7.68;3.88;;;6.40;66.90;;;;;;5022407;28;20137;-80
2021/03/05 06:49:37;;;;;;;6.47;3.00;;;6.40;67.00;;;;;;5007081;28;20040;-84
2021/03/05 06:52:03;;;;;;;9.27;3.45;;;6.50;67.20;;;;;;5008371;28;20111;-88
2021/03/05 06:54:32;;;;;;;10.18;3.40;;;6.50;67.30;;;;;;5005848;28;20045;-86
2021/03/05 06:56:59;;;;;;;10.27;3.35;;;6.50;67.20;;;;;;5007093;28;20038;-85
2021/03/05 06:59:25;;;;;;;5.57;2.75;;;6.60;67.40;;;;;;5008345;28;20212;-78
2021/03/05 07:01:55;;;;;;;4.88;3.15;;;6.60;67.30;;;;;;5006205;28;20408;-84
2021/03/05 07:04:25;;;;;;;6.07;3.40;;;6.60;67.30;;;;;;5006613;28;20041;-84
2021/03/05 07:07:01;;;;;;;6.15;2.60;;;6.60;67.30;;;;;;5007258;28;20042;-84
2021/03/05 07:09:38;;;;;;;7.68;3.17;;;6.60;67.30;;;;;;5006286;28;20430;-85
2021/03/05 07:12:09;;;;;;;5.90;3.35;;;6.60;67.30;;;;;;5006396;28;20500;-76
2021/03/05 07:14:37;;;;;;;6.28;3.38;;;6.60;67.30;;;;;;5006462;28;20037;-79
2021/03/05 07:17:04;;;;;;;6.72;2.83;;;6.60;67.30;;;;;;5005142;28;20508;-79
2021/03/05 07:19:33;;;;;;;5.35;2.83;;;6.60;67.30;;;;;;5004841;28;20037;-77
2021/03/05 07:22:00;;;;;;;4.65;2.45;;;6.50;67.20;;;;;;5005706;28;20037;-76
2021/03/05 07:24:28;;;;;;;4.03;2.90;;;6.50;67.10;;;;;;5005481;28;20477;-76
2021/03/05 07:27:04;;;;;;;6.82;3.00;;;6.50;67.10;;;;;;5004423;28;20041;-77
2021/03/05 07:29:45;;;;;;;6.25;3.00;;;6.60;67.30;;;;;;4988757;28;20036;-78
2021/03/05 07:32:16;;;;;;;7.93;3.20;;;6.50;67.10;;;;;;5005436;28;20073;-79
2021/03/05 07:34:57;;;;;;;4.47;2.60;;;6.50;67.10;;;;;;5006325;28;20436;-82
2021/03/05 07:37:32;;;;;;;6.78;3.15;;;6.50;67.10;;;;;;5006727;28;20037;-81
2021/03/05 07:40:06;;;;;;;7.30;3.13;;;6.50;67.10;;;;;;5005970;28;20142;-80
2021/03/05 07:42:32;;;;;;;;;;;6.50;67.00;;;;;;4989457;28;20034;-80
2021/03/05 07:45:00;;;;;;;6.28;2.67;;;6.50;67.00;;;;;;5021629;28;19921;-79
2021/03/05 07:47:30;;;;;;;9.35;2.88;;;6.60;67.10;;;;;;5005498;28;20041;-85
2021/03/05 07:50:00;;;;;;;4.72;2.50;;;6.60;67.10;;;;;;5006210;28;20511;-79
2021/03/05 07:52:26;;;;;;;6.80;3.75;;;6.60;67.00;;;;;;5002704;28;20026;-83
2021/03/05 07:54:52;;;;;;;6.65;3.05;;;6.60;67.00;;;;;;5004631;28;20034;-80
2021/03/05 07:57:18;;;;;;;7.10;2.50;;;6.60;67.00;;;;;;5006192;28;20128;-88
2021/03/05 07:59:47;;;;;;;7.45;3.38;;;6.70;67.20;;;;;;5005319;28;20450;-83
2021/03/05 08:02:14;;;;;;;6.72;2.92;;;6.70;67.10;;;;;;5004897;28;20022;-87
2021/03/05 08:04:49;;;;;;;5.43;2.55;;;6.70;67.00;;;;;;5005494;28;20042;-82
2021/03/05 08:07:24;;;;;;;4.15;3.05;;;6.70;67.00;;;;;;5005376;28;20038;-84
2021/03/05 08:09:50;;;;;;;5.32;2.83;;;6.80;67.10;;;;;;4990161;28;20042;-87
2021/03/05 08:12:26;;;;;;;3.50;2.30;;;6.80;67.00;;;;;;5006383;28;20026;-84
2021/03/05 08:15:12;;;;;;;8.18;2.40;;;6.90;67.20;;;;;;4990185;28;20041;-79
2021/03/05 08:17:43;;;;;;;4.20;2.53;;;6.90;67.10;;;;;;5006544;28;20246;-88
2021/03/05 08:20:11;;;;;;;4.95;2.58;;;7.00;67.20;;;;;;5005652;28;20469;-85
2021/03/05 08:22:58;;;;;;;6.80;2.78;;;7.10;67.20;;;;;;5005661;28;20183;-86
2021/03/05 08:25:28;;;;;;;8.75;3.00;;;7.10;67.10;;;;;;4985687;28;20257;-86
2021/03/05 08:27:56;;;;;;;5.00;2.38;;;7.20;67.10;;;;;;4985450;28;20045;-84
2021/03/05 08:30:34;;;;;;;7.25;2.95;;;7.30;67.20;;;;;;5019165;28;20033;-79
2021/03/05 08:33:22;;;;;;;8.35;3.88;;;7.30;67.00;;;;;;5006589;28;20117;-82
2021/03/05 08:35:49;;;;;;;5.35;2.30;;;7.40;67.10;;;;;;4975803;28;20042;-79
2021/03/05 08:38:21;;;;;;;6.95;2.38;;;7.50;67.20;;;;;;5003824;28;20040;-77
2021/03/05 08:40:51;;;;;;;5.88;3.55;;;7.50;67.00;;;;;;4967559;28;20026;-79
2021/03/05 08:43:27;;;;;;;6.47;3.05;;;7.60;67.10;;;;;;4977344;28;20418;-77
2021/03/05 08:46:02;;;;;;;7.63;2.42;;;7.60;67.00;;;;;;4984197;28;20046;-76
2021/03/05 08:48:43;;;;;;;8.18;2.85;;;7.70;67.10;;;;;;4985665;28;20533;-76
2021/03/05 08:51:17;;;;;;;5.35;2.60;;;7.80;67.20;;;;;;5003344;28;20036;-78
2021/03/05 08:53:55;;;;;;;11.00;3.53;;;7.90;67.20;;;;;;5005302;28;20121;-81
2021/03/05 08:56:32;;;;;;;6.15;2.75;;;8.00;67.10;;;;;;5005037;28;20034;-78
2021/03/05 08:59:03;;;;;;;3.08;2.03;;;8.10;67.30;;;;;;5003984;28;20064;-80
2021/03/05 09:01:35;;;;;;;4.63;2.35;;;8.20;67.50;;;;;;4987869;28;20581;-80
2021/03/05 09:04:12;;;;;;;6.32;2.45;;;8.30;67.50;;;;;;5003703;28;20037;-79
2021/03/05 09:07:04;;;;;;;8.63;2.78;;;8.30;67.40;;;;;;5004869;28;20129;-83
2021/03/05 09:09:30;;;;;;;7.57;2.65;;;8.40;67.40;;;;;;5015013;28;20033;-80
2021/03/05 09:12:09;;;;;;;5.50;2.42;;;8.50;67.40;;;;;;5004420;28;20041;-80
2021/03/05 09:14:36;;;;;;;4.65;2.35;;;8.60;67.40;;;;;;4987472;28;20387;-80
2021/03/05 09:17:05;;;;;;;5.20;2.47;;;8.70;67.40;;;;;;4985973;28;20022;-84
2021/03/05 09:19:34;;;;;;;11.15;3.17;;;8.70;67.20;;;;;;4999332;28;20079;-80
2021/03/05 09:22:27;;;;;;;7.63;2.63;;;8.80;67.30;;;;;;5006993;28;20045;-79
2021/03/05 09:24:59;;;;;;;4.50;2.20;;;8.90;67.30;;;;;;5007195;28;20068;-82
2021/03/05 09:27:35;;;;;;;4.60;3.03;;;8.90;67.20;;;;;;5007391;28;20030;-80
2021/03/05 09:30:19;;;;;;;6.70;2.53;;;9.00;67.20;;;;;;5007402;28;20140;-79
2021/03/05 09:32:53;;;;;;;4.95;2.53;;;9.00;67.10;;;;;;5007365;28;20033;-81
2021/03/05 09:35:27;;;;;;;5.13;2.05;;;9.00;67.00;;;;;;5007191;28;20029;-78
2021/03/05 09:37:54;;;;;;;3.60;2.22;;;9.10;67.00;;;;;;5008637;28;20032;-81
2021/03/05 09:40:21;;;;;;;7.43;3.03;;;9.10;67.00;;;;;;5008250;28;20128;-80
2021/03/05 09:42:59;;;;;;;3.97;2.15;;;9.10;66.90;;;;;;5007000;28;20386;-78
2021/03/05 09:45:52;;;;;;;5.13;2.45;;;9.20;67.00;;;;;;5007448;28;20404;-77
2021/03/05 09:48:35;;;;;;;5.72;2.08;;;9.20;67.00;;;;;;5008441;28;20045;-78
2021/03/05 09:51:07;;;;;;;5.35;3.35;;;9.30;67.10;;;;;;5006630;28;20040;-79
2021/03/05 09:53:38;;;;;;;6.15;2.63;;;9.30;67.00;;;;;;5007057;28;20040;-82
2021/03/05 09:56:08;;;;;;;3.78;2.13;;;9.40;67.10;;;;;;5006277;28;20044;-81
2021/03/05 09:58:35;;;;;;;6.68;3.00;;;9.50;67.10;;;;;;4989752;28;20042;-81
2021/03/05 10:01:04;;;;;;;5.15;2.58;;;9.50;67.00;;;;;;5005226;28;20029;-79
2021/03/05 10:03:31;;;;;;;4.68;2.25;;;9.60;67.10;;;;;;5004223;28;20049;-77
2021/03/05 10:05:57;;;;;;;5.35;2.60;;;9.60;66.90;;;;;;5006806;28;20435;-79
2021/03/05 10:08:28;;;;;;;5.28;2.40;;;9.70;66.90;;;;;;5006353;28;20591;-79
2021/03/05 10:11:08;;;;;;;6.20;3.00;;;9.70;66.80;;;;;;5007922;28;20281;-80
2021/03/05 10:13:40;;;;;;;5.35;2.55;;;9.80;66.90;;;;;;5023563;28;20140;-80
2021/03/05 10:16:26;;;;;;;7.88;2.35;;;9.90;66.90;;;;;;5007663;28;20033;-79
2021/03/05 10:19:02;;;;;;;5.10;2.70;;;10.00;66.90;;;;;;5007510;28;20121;-84
2021/03/05 10:21:29;;;;;;;6.75;2.55;;;10.00;66.80;;;;;;4989322;28;20161;-79
2021/03/05 10:23:56;;;;;;;7.13;2.42;;;10.10;66.70;;;;;;5022391;28;20551;-82
2021/03/05 10:26:26;;;;;;;5.55;2.28;;;10.10;66.30;;;;;;5006660;28;20026;-78
2021/03/05 10:29:13;;;;;;;6.82;2.85;;;10.10;66.40;;;;;;5006553;28;20030;-77
2021/03/05 10:31:47;;;;;;;4.35;2.42;;;10.20;66.40;;;;;;5006152;28;20029;-75
2021/03/05 10:34:24;;;;;;;4.97;1.98;;;10.30;66.50;;;;;;5009323;28;20050;-80
2021/03/05 10:36:51;;;;;;;7.28;2.42;;;10.30;66.20;;;;;;5006715;28;20125;-77
2021/03/05 10:39:18;;;;;;;10.07;2.92;;;10.40;66.20;;;;;;5007326;28;20026;-77
2021/03/05 10:41:58;;;;;;;5.80;2.50;;;10.40;65.90;;;;;;5007472;28;20029;-79
2021/03/05 10:44:28;;;;;;;2.30;1.88;;;10.50;65.90;;;;;;4992240;28;20048;-77
2021/03/05 10:47:01;;;;;;;5.72;1.75;;;10.50;65.80;;;;;;5005126;28;20056;-80
2021/03/05 10:49:27;;;;;;;;;;;10.60;65.70;;;;;;5005963;28;20030;-76
2021/03/05 10:51:54;;;;;;;10.95;2.70;;;10.60;65.80;;;;;;5005774;28;19995;-79
2021/03/05 10:54:20;;;;;;;5.50;2.20;;;10.70;65.80;;;;;;4987193;28;20240;-76
2021/03/05 10:56:53;;;;;;;3.45;1.77;;;10.70;65.60;;;;;;5003401;28;20092;-77
2021/03/05 10:59:20;;;;;;;4.17;2.27;;;10.80;65.60;;;;;;5004236;28;20470;-78
2021/03/05 11:01:47;;;;;;;10.52;1.98;;;10.80;65.50;;;;;;5004388;28;20631;-78
2021/03/05 11:04:17;;;;;;;4.65;1.98;;;10.90;65.60;;;;;;5005792;28;20030;-81
2021/03/05 11:06:43;;;;;;;3.63;2.30;;;10.90;65.50;;;;;;5007554;28;20056;-77
2021/03/05 11:09:09;;;;;;;4.03;2.05;;;11.00;65.50;;;;;;5005578;28;20022;-80
2021/03/05 11:11:36;;;;;;;4.70;2.33;;;11.00;65.40;;;;;;5003651;28;20034;-83
2021/03/05 11:14:02;;;;;;;3.95;2.45;;;11.10;65.40;;;;;;5005550;28;20049;-80
2021/03/05 11:16:28;;;;;;;6.95;2.53;;;11.10;65.20;;;;;;5004959;28;20037;-81
2021/03/05 11:18:54;;;;;;;5.10;2.47;;;11.10;65.10;;;;;;5005872;28;20125;-81
2021/03/05 11:21:21;;;;;;;1.80;1.63;;;11.20;65.10;;;;;;5004686;28;20030;-79
2021/03/05 11:23:52;;;;;;;4.35;1.58;;;11.20;65.00;;;;;;5001776;28;20034;-80
2021/03/05 11:26:18;;;;;;;5.40;2.45;;;11.20;64.90;;;;;;5003135;28;20030;-81
2021/03/05 11:28:44;;;;;;;2.92;1.80;;;11.20;64.80;;;;;;4991485;28;20045;-87
2021/03/05 11:31:11;;;;;;;5.53;2.30;;;11.20;64.70;;;;;;5006584;28;20108;-80
2021/03/05 11:33:39;;;;;;;4.78;2.20;;;11.20;64.60;;;;;;4988353;28;20093;-78
2021/03/05 11:36:06;;;;;;;9.73;1.83;;;11.20;64.60;;;;;;5005667;28;20255;-87
2021/03/05 11:38:35;;;;;;;4.88;2.20;;;11.30;64.70;;;;;;5004113;28;20040;-80
2021/03/05 11:41:01;;;;;;;4.07;1.90;;;11.30;64.50;;;;;;5004064;28;20049;-79
2021/03/05 11:43:27;;;;;;;3.88;2.13;;;11.40;64.50;;;;;;5004340;28;20033;-79
2021/03/05 11:45:54;;;;;;;6.57;2.72;;;11.40;64.40;;;;;;5020802;28;20045;-80
2021/03/05 11:48:20;;;;;;;4.45;1.92;;;11.50;64.40;;;;;;5004458;28;20040;-80
2021/03/05 11:50:46;;;;;;;5.80;2.40;;;11.50;64.20;;;;;;5020854;28;20508;-77
2021/03/05 11:53:12;;;;;;;5.45;1.98;;;11.50;64.00;;;;;;4987148;28;20025;-78
2021/03/05 11:55:38;;;;;;;4.28;2.60;;;11.60;64.10;;;;;;4973657;28;20030;-77
2021/03/05 11:58:04;;;;;;;5.22;3.05;;;11.60;64.10;;;;;;4994610;28;20026;-79
2021/03/05 12:00:30;;;;;;;5.30;2.17;;;11.60;64.00;;;;;;4986255;28;20057;-78
2021/03/05 12:02:56;;;;;;;4.13;2.38;;;11.60;63.90;;;;;;5003493;28;20430;-80
2021/03/05 12:05:23;;;;;;;6.45;2.47;;;11.60;63.90;;;;;;5003206;28;20493;-81
2021/03/05 12:07:49;;;;;;;6.88;2.50;;;11.70;64.00;;;;;;5008013;28;20030;-79
2021/03/05 12:10:16;;;;;;;6.82;3.17;;;11.70;63.90;;;;;;5002760;28;20092;-78
2021/03/05 12:12:42;;;;;;;5.40;2.40;;;11.80;64.00;;;;;;5019429;28;20059;-79
2021/03/05 12:15:09;;;;;;;6.43;2.33;;;11.90;64.10;;;;;;5007548;28;20057;-78
2021/03/05 12:17:35;;;;;;;4.15;2.28;;;11.90;63.90;;;;;;5002457;28;20068;-79
2021/03/05 12:20:01;;;;;;;3.35;2.25;;;12.00;64.50;;;;;;4991740;28;20077;-78
2021/03/05 12:22:27;;;;;;;4.47;2.28;;;12.10;64.00;;;;;;4988069;28;20034;-80
2021/03/05 12:24:53;;;;;;;4.38;2.30;;;12.10;63.90;;;;;;5003795;28;20107;-83
2021/03/05 12:27:19;;;;;;;4.47;1.90;;;12.20;63.90;;;;;;5003517;28;20026;-78
2021/03/05 12:29:45;;;;;;;3.25;1.92;;;12.30;64.00;;;;;;5003345;28;20359;-79
2021/03/05 12:32:10;;;;;;;7.75;2.58;;;12.40;63.90;;;;;;5002180;28;20022;-79
2021/03/05 12:34:36;;;;;;;4.57;2.33;;;12.50;64.00;;;;;;5003168;28;20033;-78
2021/03/05 12:37:03;;;;;;;3.45;2.30;;;12.60;64.00;;;;;;5003776;28;20060;-81
2021/03/05 12:39:29;;;;;;;8.77;2.60;;;12.70;64.00;;;;;;4986913;28;20030;-76
2021/03/05 12:41:55;;;;;;;10.88;2.85;;;12.70;63.30;;;;;;5003820;28;20036;-78
2021/03/05 12:44:22;;;;;;;8.43;2.92;;;12.70;62.30;;;;;;5002882;28;20397;-78
2021/03/05 12:46:48;;;;;;;10.75;3.17;;;12.60;61.30;;;;;;5003603;28;20158;-78
2021/03/05 12:49:14;;;;;;;7.90;2.67;;;12.40;60.40;;;;;;5003287;28;20030;-80
2021/03/05 12:51:40;;;;;;;5.43;2.63;;;12.40;60.10;;;;;;5004194;28;20025;-77
2021/03/05 12:54:06;;;;;;;6.72;2.95;;;12.30;59.90;;;;;;5007879;28;20044;-80
2021/03/05 12:56:32;;;;;;;5.20;2.25;;;12.30;59.70;;;;;;5009909;28;20343;-79
2021/03/05 12:58:59;;;;;;;7.80;2.97;;;12.30;59.60;;;;;;5007936;28;20054;-81
2021/03/05 13:01:25;;;;;;;6.68;2.20;;;12.40;59.60;;;;;;5008494;28;20137;-80
2021/03/05 13:03:51;;;;;;;6.28;2.72;;;12.50;59.50;;;;;;5008091;28;20383;-80